createdAt,value
2023-01-29T00:31:53.881Z,1021.63
2023-01-29T00:32:54.713Z,1021.61
2023-01-29T00:33:54.720Z,1021.62
2023-01-29T00:34:54.718Z,1021.70
2023-01-29T00:35:54.680Z,1021.67
2023-01-29T00:36:54.661Z,1021.71
2023-01-29T00:37:54.643Z,1021.66
2023-01-29T00:38:54.937Z,1021.68
2023-01-29T00:39:54.640Z,1021.65
2023-01-29T00:40:54.637Z,1021.71
2023-01-29T00:41:54.594Z,1021.63
2023-01-29T00:42:54.593Z,1021.66
2023-01-29T00:43:54.572Z,1021.63
2023-01-29T00:44:54.569Z,1021.68
2023-01-29T00:45:54.542Z,1021.67
2023-01-29T00:46:54.620Z,1021.63
2023-01-29T00:47:54.523Z,1021.61
2023-01-29T00:48:54.507Z,1021.64
2023-01-29T00:49:54.528Z,1021.65
2023-01-29T00:50:54.470Z,1021.66
2023-01-29T00:51:54.458Z,1021.70
2023-01-29T00:52:54.452Z,1021.70
2023-01-29T00:53:54.465Z,1021.74
2023-01-29T00:54:54.459Z,1021.72
2023-01-29T00:55:54.422Z,1021.67
2023-01-29T00:56:54.399Z,1021.68
2023-01-29T00:57:54.392Z,1021.67
2023-01-29T00:58:54.388Z,1021.70
2023-01-29T00:59:54.387Z,1021.68
2023-01-29T01:00:54.414Z,1021.68
2023-01-29T01:01:54.351Z,1021.64
2023-01-29T01:02:54.327Z,1021.63
2023-01-29T01:03:54.344Z,1021.63
2023-01-29T01:04:54.291Z,1021.61
2023-01-29T01:05:54.282Z,1021.61
2023-01-29T01:06:54.308Z,1021.54
2023-01-29T01:07:54.250Z,1021.53
2023-01-29T01:08:54.238Z,1021.49
2023-01-29T01:09:54.256Z,1021.47
2023-01-29T01:10:54.213Z,1021.43
2023-01-29T01:11:54.196Z,1021.42
2023-01-29T01:12:54.199Z,1021.41
2023-01-29T01:13:54.165Z,1021.37
2023-01-29T01:14:54.156Z,1021.36
2023-01-29T01:15:54.146Z,1021.34
2023-01-29T01:16:54.133Z,1021.30
2023-01-29T01:17:54.108Z,1021.25
2023-01-29T01:18:54.084Z,1021.23
2023-01-29T01:19:54.108Z,1021.19
2023-01-29T01:20:54.072Z,1021.19
2023-01-29T01:21:54.054Z,1021.20
2023-01-29T01:22:54.086Z,1021.16
2023-01-29T01:23:54.049Z,1021.17
2023-01-29T01:24:54.020Z,1021.19
2023-01-29T01:25:54.045Z,1021.17
2023-01-29T01:26:53.993Z,1021.19
2023-01-29T01:27:53.987Z,1021.15
2023-01-29T01:28:54.005Z,1021.17
2023-01-29T01:29:54.039Z,1021.19
2023-01-29T01:30:53.976Z,1021.25
2023-01-29T01:31:53.983Z,1021.17
2023-01-29T01:32:53.926Z,1021.13
2023-01-29T01:33:53.958Z,1021.16
2023-01-29T01:34:53.905Z,1021.15
2023-01-29T01:35:53.910Z,1021.18
2023-01-29T01:36:53.864Z,1021.21
2023-01-29T01:37:53.859Z,1021.16
2023-01-29T01:38:53.849Z,1021.19
2023-01-29T01:39:53.827Z,1021.23
2023-01-29T01:40:53.856Z,1021.24
2023-01-29T01:41:53.788Z,1021.21
2023-01-29T01:42:53.793Z,1021.24
2023-01-29T01:43:53.786Z,1021.26
2023-01-29T01:44:53.772Z,1021.28
2023-01-29T01:45:53.809Z,1021.29
2023-01-29T02:01:02.004Z,1021.09
2023-01-29T02:03:54.056Z,1021.17
2023-01-29T02:04:55.053Z,1021.17
2023-01-29T02:05:55.084Z,1021.16
2023-01-29T02:06:55.027Z,1021.18
2023-01-29T02:07:55.017Z,1021.13
2023-01-29T02:08:54.997Z,1021.12
2023-01-29T02:09:54.990Z,1021.13
2023-01-29T02:10:54.987Z,1021.22
2023-01-29T02:11:54.963Z,1021.21
2023-01-29T02:12:54.944Z,1021.20
2023-01-29T02:13:54.931Z,1021.20
2023-01-29T02:14:54.919Z,1021.27
2023-01-29T02:15:54.910Z,1021.29
2023-01-29T02:16:54.900Z,1021.33
2023-01-29T02:17:54.899Z,1021.38
2023-01-29T02:18:54.875Z,1021.42
2023-01-29T02:19:54.854Z,1021.42
2023-01-29T02:20:54.856Z,1021.43
2023-01-29T02:21:54.839Z,1021.45
2023-01-29T02:22:54.845Z,1021.47
2023-01-29T02:23:54.875Z,1021.46
2023-01-29T02:24:54.790Z,1021.51
2023-01-29T02:25:54.785Z,1021.48
2023-01-29T02:26:54.773Z,1021.52
2023-01-29T02:27:54.770Z,1021.56
2023-01-29T02:28:54.771Z,1021.53
2023-01-29T02:29:54.739Z,1021.54
2023-01-29T02:30:54.742Z,1021.53
2023-01-29T02:31:54.715Z,1021.51
2023-01-29T02:32:54.794Z,1021.54
2023-01-29T02:33:54.694Z,1021.60
2023-01-29T02:34:54.664Z,1021.60
2023-01-29T02:35:54.657Z,1021.62
2023-01-29T02:36:54.635Z,1021.61
2023-01-29T02:37:54.648Z,1021.53
2023-01-29T02:38:54.589Z,1021.52
2023-01-29T03:12:34.365Z,1021.58
2023-01-29T03:13:35.282Z,1021.65
2023-01-29T03:14:35.270Z,1021.65
2023-01-29T03:15:35.268Z,1021.61
2023-01-29T03:16:35.288Z,1021.64
2023-01-29T03:17:35.222Z,1021.61
2023-01-29T03:18:35.226Z,1021.63
2023-01-29T03:19:35.205Z,1021.65
2023-01-29T03:20:35.220Z,1021.56
2023-01-29T03:21:35.176Z,1021.57
2023-01-29T03:22:35.145Z,1021.56
2023-01-29T03:23:35.128Z,1021.49
2023-01-29T03:24:35.133Z,1021.48
2023-01-29T03:25:35.138Z,1021.50
2023-01-29T03:26:35.118Z,1021.45
2023-01-29T03:27:35.081Z,1021.46
2023-01-29T03:28:35.066Z,1021.45
2023-01-29T03:29:35.081Z,1021.44
2023-01-29T03:30:35.080Z,1021.45
2023-01-29T03:31:35.166Z,1021.42
2023-01-29T03:32:35.021Z,1021.38
2023-01-29T03:33:35.004Z,1021.35
2023-01-29T03:34:34.995Z,1021.43
2023-01-29T03:35:35.003Z,1021.39
2023-01-29T03:36:35.008Z,1021.40
2023-01-29T03:37:34.978Z,1021.39
2023-01-29T03:38:34.942Z,1021.34
2023-01-29T03:39:34.936Z,1021.38
2023-01-29T03:40:34.930Z,1021.47
2023-01-29T03:41:34.900Z,1021.48
2023-01-29T03:42:34.888Z,1021.40
2023-01-29T03:43:34.880Z,1021.41
2023-01-29T03:44:34.888Z,1021.40
2023-01-29T03:45:34.908Z,1021.39
2023-01-29T03:46:34.844Z,1021.35
2023-01-29T03:47:34.829Z,1021.30
2023-01-29T03:48:35.016Z,1021.26
2023-01-29T03:49:34.813Z,1021.26
2023-01-29T03:50:34.793Z,1021.23
2023-01-29T03:51:38.369Z,1021.23
2023-01-29T03:52:34.778Z,1021.29
2023-01-29T03:53:34.740Z,1021.24
2023-01-29T03:54:56.530Z,1021.26
2023-01-29T03:55:34.711Z,1021.23
2023-01-29T03:56:34.695Z,1021.21
2023-01-29T03:57:34.698Z,1021.14
2023-01-29T03:58:34.687Z,1021.13
2023-01-29T03:59:34.680Z,1021.14
2023-01-29T04:00:34.656Z,1021.11
2023-01-29T04:01:34.673Z,1021.10
2023-01-29T04:02:34.631Z,1021.10
2023-01-29T04:03:34.631Z,1021.08
2023-01-29T04:04:34.601Z,1021.04
2023-01-29T04:05:55.712Z,1020.99
2023-01-29T04:06:34.552Z,1020.93
2023-01-29T04:07:35.677Z,1020.88
2023-01-29T04:08:34.541Z,1020.86
2023-01-29T04:09:34.564Z,1020.83
2023-01-29T04:10:34.524Z,1020.84
2023-01-29T04:11:34.510Z,1020.85
2023-01-29T04:12:34.490Z,1020.86
2023-01-29T04:13:34.487Z,1020.88
2023-01-29T04:14:34.462Z,1020.89
2023-01-29T04:15:34.479Z,1020.90
2023-01-29T04:16:34.550Z,1020.87
2023-01-29T04:17:34.420Z,1020.92
2023-01-29T04:18:34.407Z,1020.87
2023-01-29T04:19:34.383Z,1020.92
2023-01-29T04:20:34.384Z,1020.88
2023-01-29T04:21:34.403Z,1020.90
2023-01-29T04:22:34.369Z,1020.86
2023-01-29T04:23:34.358Z,1020.83
2023-01-29T04:24:34.321Z,1020.83
2023-01-29T04:25:34.316Z,1020.83
2023-01-29T04:26:34.311Z,1020.81
2023-01-29T04:27:34.276Z,1020.74
2023-01-29T04:28:34.341Z,1020.69
2023-01-29T04:29:34.259Z,1020.70
2023-01-29T04:30:34.367Z,1020.65
2023-01-29T04:31:34.341Z,1020.57
2023-01-29T04:32:34.216Z,1020.68
2023-01-29T04:33:34.203Z,1020.64
2023-01-29T04:34:34.182Z,1020.72
2023-01-29T04:35:34.187Z,1020.62
2023-01-29T04:36:34.192Z,1020.59
2023-01-29T04:37:34.247Z,1020.55
2023-01-29T04:38:34.126Z,1020.58
2023-01-29T04:39:34.153Z,1020.54
2023-01-29T04:40:34.121Z,1020.46
2023-01-29T04:41:34.159Z,1020.44
2023-01-29T04:42:34.093Z,1020.44
2023-01-29T04:43:34.114Z,1020.45
2023-01-29T04:44:34.050Z,1020.49
2023-01-29T04:45:34.032Z,1020.49
2023-01-29T04:46:34.136Z,1020.50
2023-01-29T04:47:34.075Z,1020.48
2023-01-29T04:48:34.015Z,1020.46
2023-01-29T04:49:33.992Z,1020.41
2023-01-29T04:50:33.978Z,1020.35
2023-01-29T04:51:33.980Z,1020.30
2023-01-29T04:52:33.948Z,1020.33
2023-01-29T04:53:33.943Z,1020.35
2023-01-29T04:54:33.915Z,1020.41
2023-01-29T04:55:33.905Z,1020.38
2023-01-29T04:56:33.904Z,1020.37
2023-01-29T04:57:33.889Z,1020.32
2023-01-29T04:58:33.867Z,1020.26
2023-01-29T04:59:33.848Z,1020.25
2023-01-29T05:00:33.836Z,1020.21
2023-01-29T05:01:33.909Z,1020.26
2023-01-29T05:02:33.837Z,1020.20
2023-01-29T05:03:33.815Z,1020.20
2023-01-29T05:04:33.796Z,1020.18
2023-01-29T05:05:33.833Z,1020.14
2023-01-29T05:06:33.792Z,1020.17
2023-01-29T05:07:33.749Z,1020.20
2023-01-29T05:08:33.715Z,1020.24
2023-01-29T05:09:33.740Z,1020.21
2023-01-29T05:10:33.721Z,1020.21
2023-01-29T05:11:33.717Z,1020.24
2023-01-29T05:12:33.737Z,1020.18
2023-01-29T05:13:33.687Z,1020.22
2023-01-29T05:14:33.698Z,1020.20
2023-01-29T05:15:33.641Z,1020.20
2023-01-29T05:16:33.653Z,1020.21
2023-01-29T05:17:33.651Z,1020.21
2023-01-29T05:18:33.596Z,1020.23
2023-01-29T05:19:33.599Z,1020.21
2023-01-29T05:20:33.586Z,1020.20
2023-01-29T05:21:33.588Z,1020.17
2023-01-29T05:22:33.564Z,1020.19
2023-01-29T05:23:33.555Z,1020.18
2023-01-29T06:07:03.509Z,1020.60
2023-01-29T06:08:04.591Z,1020.65
2023-01-29T06:09:04.617Z,1020.66
2023-01-29T06:10:04.771Z,1020.66
2023-01-29T06:11:04.475Z,1020.65
2023-01-29T06:12:04.464Z,1020.62
2023-01-29T06:13:04.452Z,1020.58
2023-01-29T06:14:04.444Z,1020.48
2023-01-29T06:15:04.421Z,1020.42
2023-01-29T06:16:04.437Z,1020.41
2023-01-29T06:17:04.408Z,1020.35
2023-01-29T06:18:04.377Z,1020.32
2023-01-29T06:19:04.496Z,1020.39
2023-01-29T06:53:53.664Z,1020.48
2023-01-29T06:54:54.395Z,1020.49
2023-01-29T06:55:54.397Z,1020.44
2023-01-29T06:56:54.383Z,1020.50
2023-01-29T06:57:54.421Z,1020.50
2023-01-29T06:58:54.355Z,1020.58
2023-01-29T06:59:54.339Z,1020.62
2023-01-29T07:00:54.416Z,1020.54
2023-01-29T07:01:54.328Z,1020.60
2023-01-29T07:02:54.300Z,1020.55
2023-01-29T07:03:54.279Z,1020.67
2023-01-29T07:04:54.275Z,1020.51
2023-01-29T07:05:54.263Z,1020.44
2023-01-29T07:06:54.273Z,1020.39
2023-01-29T07:07:54.281Z,1020.43
2023-01-29T07:08:54.294Z,1020.41
2023-01-29T07:09:54.208Z,1020.44
2023-01-29T07:10:54.195Z,1020.45
2023-01-29T07:11:54.196Z,1020.47
2023-01-29T07:12:54.169Z,1020.47
2023-01-29T07:13:54.177Z,1020.52
2023-01-29T07:14:54.150Z,1020.51
2023-01-29T07:15:54.122Z,1020.54
2023-01-29T07:16:54.129Z,1020.51
2023-01-29T07:17:54.136Z,1020.49
2023-01-29T07:18:54.141Z,1020.49
2023-01-29T07:19:54.335Z,1020.46
2023-01-29T07:20:54.061Z,1020.46
2023-01-29T07:21:54.059Z,1020.45
2023-01-29T07:22:54.061Z,1020.45
2023-01-29T07:23:54.084Z,1020.47
2023-01-29T07:24:54.017Z,1020.44
2023-01-29T07:25:54.011Z,1020.40
2023-01-29T07:26:53.984Z,1020.39
2023-01-29T07:27:53.965Z,1020.38
2023-01-29T07:28:53.967Z,1020.43
2023-01-29T07:29:53.953Z,1020.46
2023-01-29T07:30:54.033Z,1020.40
2023-01-29T07:31:54.416Z,1020.42
2023-01-29T07:32:53.896Z,1020.39
2023-01-29T07:33:54.160Z,1020.41
2023-01-29T07:34:53.890Z,1020.39
2023-01-29T07:35:53.862Z,1020.34
2023-01-29T07:36:53.873Z,1020.31
2023-01-29T07:37:53.829Z,1020.33
2023-01-29T07:38:53.820Z,1020.37
2023-01-29T07:39:53.805Z,1020.37
2023-01-29T07:40:53.793Z,1020.47
2023-01-29T07:41:53.805Z,1020.52
2023-01-29T07:42:53.773Z,1020.50
2023-01-29T07:43:53.790Z,1020.44
2023-01-29T07:44:53.732Z,1020.44
2023-01-29T07:45:53.734Z,1020.50
2023-01-29T07:46:53.754Z,1020.49
2023-01-29T07:47:53.756Z,1020.49
2023-01-29T07:48:53.673Z,1020.49
2023-01-29T07:49:53.671Z,1020.52
2023-01-29T07:50:53.662Z,1020.48
2023-01-29T07:51:53.677Z,1020.45
2023-01-29T07:52:53.625Z,1020.43
2023-01-29T07:53:53.621Z,1020.38
2023-01-29T07:54:53.624Z,1020.39
2023-01-29T07:55:53.585Z,1020.36
2023-01-29T07:57:29.940Z,1020.40
2023-01-29T07:57:53.564Z,1020.35
2023-01-29T07:58:53.548Z,1020.31
2023-01-29T08:09:32.868Z,1020.22
2023-01-29T08:10:12.623Z,1020.24
2023-01-29T08:11:12.605Z,1020.22
2023-01-29T08:12:12.626Z,1020.24
2023-01-29T08:13:12.590Z,1020.29
2023-01-29T08:14:12.583Z,1020.28
2023-01-29T08:15:12.572Z,1020.27
2023-01-29T08:16:12.637Z,1020.21
2023-01-29T08:17:12.541Z,1020.17
2023-01-29T08:18:12.549Z,1020.13
2023-01-29T08:19:12.558Z,1020.10
2023-01-29T08:20:12.523Z,1020.06
2023-01-29T08:21:13.902Z,1020.08
2023-01-29T08:22:12.473Z,1020.04
2023-01-29T08:23:12.447Z,1020.05
2023-01-29T08:24:12.436Z,1020.01
2023-01-29T08:25:12.434Z,1019.97
2023-01-29T08:26:12.478Z,1019.97
2023-01-29T08:27:12.432Z,1019.96
2023-01-29T08:28:12.439Z,1019.95
2023-01-29T08:29:12.376Z,1019.91
2023-01-29T08:30:12.591Z,1019.94
2023-01-29T08:36:13.233Z,1019.96
2023-01-29T08:37:12.436Z,1019.96
2023-01-29T08:38:12.479Z,1019.95
2023-01-29T08:39:12.370Z,1019.88
2023-01-29T08:40:12.389Z,1019.85
2023-01-29T08:41:12.373Z,1019.80
2023-01-29T08:42:12.368Z,1019.78
2023-01-29T08:43:12.334Z,1019.71
2023-01-29T08:44:12.334Z,1019.78
2023-01-29T08:45:12.303Z,1019.70
2023-01-29T08:46:12.372Z,1019.69
2023-01-29T08:47:12.278Z,1019.68
2023-01-29T08:48:33.572Z,1019.65
2023-01-29T08:49:12.400Z,1019.63
2023-01-29T08:50:12.237Z,1019.63
2023-01-29T08:51:12.247Z,1019.64
2023-01-29T08:52:12.239Z,1019.61
2023-01-29T08:53:12.179Z,1019.64
2023-01-29T08:54:12.187Z,1019.66
2023-01-29T08:55:12.297Z,1019.70
2023-01-29T08:56:12.178Z,1019.71
2023-01-29T08:57:12.149Z,1019.68
2023-01-29T08:58:12.143Z,1019.65
2023-01-29T08:59:12.101Z,1019.66
2023-01-29T09:00:12.111Z,1019.66
2023-01-29T09:01:12.125Z,1019.66
2023-01-29T09:02:12.163Z,1019.64
2023-01-29T09:03:12.080Z,1019.65
2023-01-29T09:04:12.060Z,1019.60
2023-01-29T09:05:12.024Z,1019.57
2023-01-29T09:06:12.031Z,1019.59
2023-01-29T09:07:12.071Z,1019.56
2023-01-29T09:08:12.043Z,1019.57
2023-01-29T09:09:12.005Z,1019.61
2023-01-29T09:10:11.965Z,1019.59
2023-01-29T09:11:11.958Z,1019.66
2023-01-29T09:12:11.969Z,1019.60
2023-01-29T09:13:12.014Z,1019.58
2023-01-29T09:14:11.959Z,1019.56
2023-01-29T09:15:11.912Z,1019.52
2023-01-29T09:16:11.887Z,1019.53
2023-01-29T09:17:11.917Z,1019.47
2023-01-29T09:18:11.924Z,1019.44
2023-01-29T09:19:11.868Z,1019.37
2023-01-29T09:20:11.859Z,1019.37
2023-01-29T09:21:13.689Z,1019.39
2023-01-29T09:22:12.007Z,1019.39
2023-01-29T09:23:11.798Z,1019.38
2023-01-29T09:24:11.796Z,1019.44
2023-01-29T09:25:11.796Z,1019.43
2023-01-29T09:26:11.769Z,1019.41
2023-01-29T09:27:11.737Z,1019.40
2023-01-29T09:28:11.775Z,1019.41
2023-01-29T09:29:11.716Z,1019.41
2023-01-29T09:30:11.730Z,1019.40
2023-01-29T09:31:11.850Z,1019.43
2023-01-29T09:32:11.727Z,1019.46
2023-01-29T09:33:11.718Z,1019.45
2023-01-29T09:34:11.662Z,1019.54
2023-01-29T09:35:11.636Z,1019.58
2023-01-29T09:36:11.643Z,1019.54
2023-01-29T09:37:11.679Z,1019.59
2023-01-29T09:38:11.646Z,1019.58
2023-01-29T09:39:11.602Z,1019.60
2023-01-29T09:40:11.577Z,1019.59
2023-01-29T09:41:11.557Z,1019.63
2023-01-29T09:42:11.539Z,1019.59
2023-01-29T09:43:11.547Z,1019.65
2023-01-29T09:44:11.550Z,1019.61
2023-01-29T09:45:11.498Z,1019.65
2023-01-29T09:46:11.543Z,1019.68
2023-01-29T09:47:11.496Z,1019.63
2023-01-29T09:48:11.607Z,1019.65
2023-01-29T09:49:11.574Z,1019.66
2023-01-29T09:50:11.448Z,1019.61
2023-01-29T09:51:11.444Z,1019.61
2023-01-29T09:52:11.413Z,1019.64
2023-01-29T09:53:11.477Z,1019.64
2023-01-29T09:54:11.389Z,1019.65
2023-01-29T09:55:11.362Z,1019.70
2023-01-29T09:56:11.416Z,1019.69
2023-01-29T09:57:11.346Z,1019.69
2023-01-29T09:58:11.342Z,1019.71
2023-01-29T09:59:11.342Z,1019.65
2023-01-29T10:00:11.314Z,1019.70
2023-01-29T10:01:11.376Z,1019.71
2023-01-29T10:02:11.434Z,1019.71
2023-01-29T10:03:11.303Z,1019.71
2023-01-29T10:04:11.282Z,1019.68
2023-01-29T10:05:11.249Z,1019.65
2023-01-29T10:06:11.251Z,1019.58
2023-01-29T10:07:11.207Z,1019.54
2023-01-29T10:08:11.234Z,1019.55
2023-01-29T10:09:11.179Z,1019.60
2023-01-29T10:10:11.169Z,1019.54
2023-01-29T10:11:11.172Z,1019.54
2023-01-29T10:12:11.281Z,1019.58
2023-01-29T10:13:11.236Z,1019.53
2023-01-29T10:14:11.121Z,1019.51
2023-01-29T10:15:11.104Z,1019.51
2023-01-29T10:16:11.133Z,1019.54
2023-01-29T10:17:11.123Z,1019.48
2023-01-29T10:18:11.083Z,1019.46
2023-01-29T10:19:11.049Z,1019.49
2023-01-29T10:20:11.044Z,1019.48
2023-01-29T10:21:11.021Z,1019.45
2023-01-29T10:22:11.022Z,1019.44
2023-01-29T10:23:11.030Z,1019.41
2023-01-29T10:24:10.999Z,1019.41
2023-01-29T10:25:10.984Z,1019.39
2023-01-29T10:26:11.002Z,1019.36
2023-01-29T10:27:10.947Z,1019.35
2023-01-29T10:28:11.026Z,1019.28
2023-01-29T10:29:12.823Z,1019.37
2023-01-29T10:30:10.917Z,1019.29
2023-01-29T10:31:10.981Z,1019.26
2023-01-29T10:32:11.036Z,1019.27
2023-01-29T10:33:10.902Z,1019.23
2023-01-29T10:34:10.853Z,1019.21
2023-01-29T10:35:10.835Z,1019.19
2023-01-29T10:36:10.828Z,1019.19
2023-01-29T10:37:10.805Z,1019.17
2023-01-29T10:38:10.821Z,1019.18
2023-01-29T10:39:10.778Z,1019.14
2023-01-29T10:40:10.775Z,1019.11
2023-01-29T10:41:10.798Z,1019.11
2023-01-29T10:42:10.757Z,1019.13
2023-01-29T10:43:10.763Z,1019.11
2023-01-29T10:44:10.734Z,1019.09
2023-01-29T10:45:10.729Z,1019.10
2023-01-29T10:46:10.733Z,1019.11
2023-01-29T10:47:10.732Z,1019.04
2023-01-29T10:48:10.664Z,1019.06
2023-01-29T10:49:10.850Z,1019.04
2023-01-29T10:50:10.647Z,1019.08
2023-01-29T10:51:10.643Z,1019.11
2023-01-29T10:52:10.640Z,1019.10
2023-01-29T10:53:11.824Z,1019.10
2023-01-29T10:54:31.934Z,1019.07
2023-01-29T10:55:10.628Z,1019.09
2023-01-29T10:56:21.985Z,1019.12
2023-01-29T10:57:10.563Z,1019.10
2023-01-29T10:58:10.571Z,1019.07
2023-01-29T10:59:12.705Z,1019.05
2023-01-29T11:00:12.371Z,1019.01
2023-01-29T11:01:10.570Z,1019.01
2023-01-29T11:02:10.729Z,1018.94
2023-01-29T11:03:21.681Z,1018.94
2023-01-29T11:04:10.584Z,1018.97
2023-01-29T11:05:10.446Z,1018.90
2023-01-29T11:06:10.501Z,1018.89
2023-01-29T11:07:10.430Z,1018.84
2023-01-29T11:08:10.511Z,1018.80
2023-01-29T11:09:10.431Z,1018.81
2023-01-29T11:11:29.956Z,1018.73
2023-01-29T11:12:31.026Z,1018.69
2023-01-29T11:13:31.002Z,1018.66
2023-01-29T11:14:30.949Z,1018.63
2023-01-29T11:15:30.926Z,1018.69
2023-01-29T11:16:30.961Z,1018.60
2023-01-29T11:17:30.912Z,1018.55
2023-01-29T11:18:31.038Z,1018.52
2023-01-29T11:19:32.112Z,1018.52
2023-01-29T11:20:30.860Z,1018.53
2023-01-29T11:21:30.819Z,1018.52
2023-01-29T11:22:30.828Z,1018.55
2023-01-29T11:23:30.804Z,1018.61
2023-01-29T11:24:30.862Z,1018.62
2023-01-29T11:25:30.809Z,1018.65
2023-01-29T11:26:30.792Z,1018.61
2023-01-29T11:27:30.746Z,1018.61
2023-01-29T11:28:30.746Z,1018.60
2023-01-29T11:29:30.734Z,1018.53
2023-01-29T11:30:30.722Z,1018.61
2023-01-29T11:31:30.745Z,1018.53
2023-01-29T11:32:30.688Z,1018.57
2023-01-29T11:33:30.672Z,1018.57
2023-01-29T11:34:30.657Z,1018.52
2023-01-29T11:35:30.753Z,1018.51
2023-01-29T11:36:30.721Z,1018.49
2023-01-29T11:37:30.617Z,1018.48
2023-01-29T11:38:30.614Z,1018.51
2023-01-29T11:39:38.673Z,1018.50
2023-01-29T11:40:30.643Z,1018.44
2023-01-29T11:41:30.586Z,1018.43
2023-01-29T11:42:30.575Z,1018.43
2023-01-29T11:43:30.552Z,1018.42
2023-01-29T11:44:30.564Z,1018.34
2023-01-29T11:45:30.570Z,1018.31
2023-01-29T11:46:30.566Z,1018.29
2023-01-29T11:47:30.489Z,1018.31
2023-01-29T11:48:30.472Z,1018.31
2023-01-29T11:49:30.478Z,1018.25
2023-01-29T11:50:32.620Z,1018.24
2023-01-29T11:51:30.459Z,1018.24
2023-01-29T11:52:30.419Z,1018.26
2023-01-29T11:53:30.401Z,1018.17
2023-01-29T11:54:30.564Z,1018.17
2023-01-29T11:55:38.003Z,1018.18
2023-01-29T11:56:30.410Z,1018.11
2023-01-29T11:57:30.339Z,1018.06
2023-01-29T11:58:30.341Z,1018.05
2023-01-29T11:59:30.328Z,1017.98
2023-01-29T12:00:30.309Z,1017.94
2023-01-29T12:01:30.299Z,1017.82
2023-01-29T12:02:30.348Z,1017.86
2023-01-29T12:03:30.288Z,1017.83
2023-01-29T12:04:30.307Z,1017.78
2023-01-29T12:05:31.483Z,1017.81
2023-01-29T12:06:30.228Z,1017.72
2023-01-29T12:07:30.222Z,1017.72
2023-01-29T12:08:30.210Z,1017.72
2023-01-29T12:09:30.205Z,1017.74
2023-01-29T12:10:31.433Z,1017.70
2023-01-29T12:11:30.239Z,1017.67
2023-01-29T12:12:30.162Z,1017.64
2023-01-29T12:13:30.132Z,1017.68
2023-01-29T12:14:30.182Z,1017.67
2023-01-29T12:15:30.119Z,1017.62
2023-01-29T12:16:30.139Z,1017.57
2023-01-29T12:17:30.082Z,1017.59
2023-01-29T12:18:30.064Z,1017.61
2023-01-29T12:19:30.083Z,1017.58
2023-01-29T12:20:30.049Z,1017.60
2023-01-29T12:21:30.023Z,1017.62
2023-01-29T12:22:30.011Z,1017.57
2023-01-29T12:23:29.993Z,1017.53
2023-01-29T12:24:30.041Z,1017.53
2023-01-29T12:25:30.091Z,1017.52
2023-01-29T12:26:30.086Z,1017.49
2023-01-29T12:27:29.982Z,1017.43
2023-01-29T12:28:29.967Z,1017.40
2023-01-29T12:29:30.414Z,1017.39
2023-01-29T12:30:29.917Z,1017.37
2023-01-29T12:31:29.995Z,1017.31
2023-01-29T12:32:29.888Z,1017.31
2023-01-29T12:33:29.913Z,1017.25
2023-01-29T12:34:29.856Z,1017.23
2023-01-29T12:35:29.870Z,1017.21
2023-01-29T12:36:29.832Z,1017.21
2023-01-29T12:37:29.822Z,1017.24
2023-01-29T12:38:29.828Z,1017.23
2023-01-29T12:39:29.808Z,1017.28
2023-01-29T12:40:29.805Z,1017.20
2023-01-29T12:41:29.780Z,1017.26
2023-01-29T12:42:29.759Z,1017.26
2023-01-29T12:43:29.751Z,1017.25
2023-01-29T12:44:29.721Z,1017.22
2023-01-29T12:45:29.726Z,1017.23
2023-01-29T12:46:29.809Z,1017.18
2023-01-29T12:47:29.734Z,1017.11
2023-01-29T12:48:29.661Z,1017.16
2023-01-29T12:49:29.664Z,1017.07
2023-01-29T12:50:29.823Z,1017.14
2023-01-29T12:51:29.646Z,1017.11
2023-01-29T12:52:29.661Z,1017.10
2023-01-29T12:53:29.652Z,1017.09
2023-01-29T12:54:29.590Z,1017.08
2023-01-29T12:55:29.582Z,1017.07
2023-01-29T12:56:29.632Z,1016.97
2023-01-29T12:57:29.590Z,1016.95
2023-01-29T12:58:29.542Z,1016.98
2023-01-29T12:59:29.533Z,1016.91
2023-01-29T13:00:29.533Z,1016.93
2023-01-29T13:01:29.508Z,1016.95
2023-01-29T13:02:29.489Z,1016.94
2023-01-29T13:03:29.583Z,1016.99
2023-01-29T13:04:29.513Z,1016.91
2023-01-29T13:05:29.468Z,1016.91
2023-01-29T13:06:29.440Z,1016.88
2023-01-29T13:07:29.404Z,1016.87
2023-01-29T13:08:30.447Z,1016.87
2023-01-29T13:09:29.395Z,1016.84
2023-01-29T13:10:29.401Z,1016.81
2023-01-29T13:11:29.358Z,1016.84
2023-01-29T13:12:29.398Z,1016.75
2023-01-29T13:13:29.357Z,1016.75
2023-01-29T13:14:29.345Z,1016.71
2023-01-29T13:15:29.324Z,1016.74
2023-01-29T13:16:29.365Z,1016.78
2023-01-29T13:17:29.331Z,1016.70
2023-01-29T13:18:29.271Z,1016.64
2023-01-29T13:19:29.259Z,1016.69
2023-01-29T13:20:30.343Z,1016.69
2023-01-29T13:21:29.227Z,1016.64
2023-01-29T13:22:29.223Z,1016.63
2023-01-29T13:23:29.203Z,1016.63
2023-01-29T13:24:29.188Z,1016.61
2023-01-29T13:25:29.183Z,1016.68
2023-01-29T13:26:29.204Z,1016.66
2023-01-29T13:27:29.413Z,1016.66
2023-01-29T13:28:29.202Z,1016.65
2023-01-29T13:29:29.140Z,1016.62
2023-01-29T13:30:29.438Z,1016.64
2023-01-29T13:31:29.147Z,1016.65
2023-01-29T13:32:29.107Z,1016.65
2023-01-29T13:33:29.106Z,1016.59
2023-01-29T13:34:29.051Z,1016.57
2023-01-29T13:35:29.080Z,1016.64
2023-01-29T13:36:29.053Z,1016.60
2023-01-29T13:37:29.010Z,1016.60
2023-01-29T13:38:29.011Z,1016.55
2023-01-29T13:39:28.999Z,1016.57
2023-01-29T13:40:28.978Z,1016.54
2023-01-29T13:41:28.962Z,1016.57
2023-01-29T13:42:28.948Z,1016.59
2023-01-29T13:43:28.924Z,1016.63
2023-01-29T13:44:28.934Z,1016.60
2023-01-29T13:45:28.915Z,1016.57
2023-01-29T13:46:28.971Z,1016.54
2023-01-29T13:47:28.892Z,1016.53
2023-01-29T13:48:28.881Z,1016.59
2023-01-29T13:49:28.864Z,1016.56
2023-01-29T13:50:28.852Z,1016.58
2023-01-29T13:51:28.825Z,1016.55
2023-01-29T13:52:28.826Z,1016.59
2023-01-29T13:53:28.797Z,1016.50
2023-01-29T13:54:28.802Z,1016.58
2023-01-29T13:55:28.815Z,1016.52
2023-01-29T13:56:28.769Z,1016.52
2023-01-29T13:57:28.739Z,1016.52
2023-01-29T13:58:28.745Z,1016.52
2023-01-29T13:59:28.734Z,1016.49
2023-01-29T14:00:28.733Z,1016.43
2023-01-29T14:01:28.752Z,1016.47
2023-01-29T14:02:28.749Z,1016.49
2023-01-29T14:03:35.909Z,1016.46
2023-01-29T14:04:28.674Z,1016.45
2023-01-29T14:05:28.677Z,1016.45
2023-01-29T14:06:28.629Z,1016.42
2023-01-29T14:07:28.618Z,1016.43
2023-01-29T14:08:28.602Z,1016.35
2023-01-29T14:09:28.591Z,1016.35
2023-01-29T14:10:28.630Z,1016.33
2023-01-29T14:11:28.637Z,1016.33
2023-01-29T14:12:28.562Z,1016.29
2023-01-29T14:13:28.593Z,1016.25
2023-01-29T14:14:28.528Z,1016.33
2023-01-29T14:15:28.511Z,1016.24
2023-01-29T14:16:28.655Z,1016.26
2023-01-29T14:17:28.481Z,1016.23
2023-01-29T14:18:28.508Z,1016.21
2023-01-29T14:19:28.453Z,1016.18
2023-01-29T14:20:38.723Z,1016.19
2023-01-29T14:21:28.544Z,1016.21
2023-01-29T14:22:28.455Z,1016.18
2023-01-29T14:23:28.417Z,1016.15
2023-01-29T14:24:28.383Z,1016.17
2023-01-29T14:25:28.381Z,1016.14
2023-01-29T14:26:28.438Z,1016.11
2023-01-29T14:27:28.419Z,1016.08
2023-01-29T14:28:28.522Z,1016.11
2023-01-29T14:29:34.772Z,1016.12
2023-01-29T14:30:28.326Z,1016.09
2023-01-29T14:31:28.440Z,1016.08
2023-01-29T14:32:28.301Z,1016.12
2023-01-29T14:33:28.282Z,1016.12
2023-01-29T14:34:52.929Z,1016.08
2023-01-29T14:35:28.288Z,1016.09
2023-01-29T14:36:28.237Z,1016.10
2023-01-29T14:37:28.226Z,1016.05
2023-01-29T14:38:28.214Z,1016.05
2023-01-29T14:39:28.191Z,1016.02
2023-01-29T14:40:28.192Z,1016.11
2023-01-29T14:41:28.220Z,1016.04
2023-01-29T14:42:28.182Z,1016.02
2023-01-29T14:43:28.142Z,1016.05
2023-01-29T14:44:28.129Z,1016.00
2023-01-29T14:45:28.123Z,1016.04
2023-01-29T14:46:28.166Z,1016.03
2023-01-29T14:47:28.117Z,1016.03
2023-01-29T14:48:28.071Z,1016.02
2023-01-29T14:49:28.051Z,1015.99
2023-01-29T14:50:28.049Z,1016.07
2023-01-29T14:51:28.109Z,1016.03
2023-01-29T14:52:28.026Z,1016.05
2023-01-29T14:53:28.003Z,1016.07
2023-01-29T14:54:28.005Z,1016.07
2023-01-29T14:55:27.975Z,1016.07
2023-01-29T14:56:28.004Z,1016.03
2023-01-29T14:57:27.963Z,1016.06